createdAt,value
2023-04-26T00:06:17.263Z,1018.9379254278704
2023-04-26T00:13:52.374Z,1019.0039265572929
2023-04-26T00:20:12.933Z,1019.0359993587294
2023-04-26T00:32:00.647Z,1019.0727614149491
2023-04-26T00:38:20.788Z,1019.112812348152
2023-04-26T00:44:40.162Z,1019.065318893936
2023-04-26T00:53:51.971Z,1019.0355819046974
2023-04-26T01:06:50.798Z,1019.1122564380147
2023-04-26T01:13:11.579Z,1019.1182049777893
2023-04-26T01:19:31.409Z,1019.1802913576494
2023-04-26T01:25:51.752Z,1019.2489738398076
2023-04-26T01:32:11.223Z,1019.3347056789319
2023-04-26T01:38:30.331Z,1019.3277763386808
2023-04-26T01:44:50.135Z,1019.2348862608862
2023-04-26T01:51:11.033Z,1019.1795976289137
2023-04-26T01:57:31.452Z,1019.1407209520067
2023-04-26T02:06:15.621Z,1019.1414607999707
2023-04-26T02:12:37.114Z,1019.1601946067943
2023-04-26T02:25:51.035Z,1019.2054950468723
2023-04-26T02:32:12.623Z,1019.224521326593
2023-04-26T02:38:33.490Z,1019.2571672951366
2023-04-26T02:44:54.500Z,1019.2737500714726
2023-04-26T02:51:15.378Z,1019.2296466110886
2023-04-26T02:57:34.868Z,1019.1558062596162
2023-04-26T03:03:54.679Z,1019.2023543482635
2023-04-26T03:10:16.310Z,1019.2488721471921
2023-04-26T03:17:49.837Z,1019.2630963605643
2023-04-26T03:29:32.521Z,1019.348082379271
2023-04-26T03:37:03.889Z,1019.3078085574159
2023-04-26T03:43:23.532Z,1019.3292879380768
2023-04-26T03:53:08.760Z,1019.3039283574813
2023-04-26T03:59:59.904Z,1019.3037609163805
2023-04-26T04:06:19.521Z,1019.2661824595771
2023-04-26T04:12:40.155Z,1019.2600179564832
2023-04-26T04:19:01.978Z,1019.2831979738369
2023-04-26T04:25:23.353Z,1019.2853529439773
2023-04-26T04:31:45.053Z,1019.3207461486464
2023-04-26T04:42:53.286Z,1019.3128111812183
2023-04-26T04:49:15.994Z,1019.2970888036308
2023-04-26T05:04:35.311Z,1019.4553692829279
2023-04-26T05:10:57.587Z,1019.4965597969926
2023-04-26T05:17:21.423Z,1019.4734053247294
2023-04-26T05:24:09.164Z,1019.4136837868432
2023-04-26T05:30:53.653Z,1019.40616879908
2023-04-26T05:37:16.082Z,1019.4048617832171
2023-04-26T05:43:40.630Z,1019.3958415934554
2023-04-26T05:50:05.930Z,1019.4513190536808
2023-04-26T05:56:30.920Z,1019.5038041867053
2023-04-26T06:02:59.673Z,1019.5355077694853
2023-04-26T06:14:29.282Z,1019.5020380842162
2023-04-26T06:22:51.104Z,1019.5461837297798
2023-04-26T06:29:13.649Z,1019.5648553921328
2023-04-26T06:35:35.055Z,1019.5977421380329
2023-04-26T06:42:00.727Z,1019.6851933604559
2023-04-26T06:48:22.263Z,1019.7703747823342
2023-04-26T06:54:56.672Z,1019.8048738338225
2023-04-26T07:03:39.475Z,1019.8523111156862
2023-04-26T07:10:02.738Z,1019.9436011302223
2023-04-26T07:16:28.101Z,1019.9346420991326
2023-04-26T07:28:57.188Z,1019.9389639323118
2023-04-26T07:41:59.073Z,1019.9450289812838
2023-04-26T07:51:12.953Z,1019.9307559722689
2023-04-26T07:57:37.447Z,1019.9258893364248
2023-04-26T08:04:01.914Z,1019.9250712341654
2023-04-26T08:10:25.861Z,1019.9538273160576
2023-04-26T08:20:53.151Z,1019.9957256672689
2023-04-26T08:27:16.956Z,1020.0357558203182
2023-04-26T08:35:56.461Z,1020.0875902818797
2023-04-26T08:46:31.386Z,1020.0975674239002
2023-04-26T08:55:03.534Z,1020.1104798885888
2023-04-26T09:05:37.153Z,1020.0827721699416
2023-04-26T09:12:02.272Z,1020.0713955567269
2023-04-26T09:23:38.588Z,1020.1579535803018
2023-04-26T09:34:10.987Z,1020.2293889262522
2023-04-26T09:40:32.874Z,1020.3159669759572
2023-04-26T09:46:55.308Z,1020.3813534882783
2023-04-26T09:59:00.541Z,1020.4631748580064
2023-04-26T10:05:23.385Z,1020.5366143923616
2023-04-26T10:11:46.464Z,1020.549185584843
2023-04-26T10:18:08.707Z,1020.4852267395721
2023-04-26T10:29:45.794Z,1020.4474330582608
2023-04-26T10:36:05.984Z,1020.4200611699592
2023-04-26T10:45:49.143Z,1020.436473110019
2023-04-26T10:54:24.815Z,1020.6156950003964
2023-04-26T11:01:14.670Z,1020.560135379177
2023-04-26T11:07:35.903Z,1020.5108747437272
2023-04-26T11:13:56.615Z,1020.4464003481452
2023-04-26T11:20:17.707Z,1020.3916302537641
2023-04-26T11:26:38.003Z,1020.3277529756822
2023-04-26T11:32:59.166Z,1020.2759334839714
2023-04-26T11:39:20.153Z,1020.2829930644418
2023-04-26T11:45:40.823Z,1020.2241855615654
2023-04-26T11:52:02.121Z,1020.1429802612114
2023-04-26T11:59:01.474Z,1020.1423326500534
2023-04-26T12:14:49.787Z,1020.4241671974376
2023-04-26T12:21:10.571Z,1020.4516240051194
2023-04-26T12:27:30.946Z,1020.5481729128984
2023-04-26T12:33:51.691Z,1020.6492255434466
2023-04-26T12:40:12.405Z,1020.6989233542466
2023-04-26T12:46:32.993Z,1020.6629975620956
2023-04-26T12:54:27.228Z,1020.5984287327432
2023-04-26T13:00:48.089Z,1020.5836149327505
2023-04-26T13:07:09.412Z,1020.584597130059
2023-04-26T13:13:42.395Z,1020.5744014638784
2023-04-26T13:20:04.830Z,1020.6061876424274
2023-04-26T13:26:27.614Z,1020.6732349849173
2023-04-26T13:32:48.561Z,1020.7374557044515
2023-04-26T13:45:11.221Z,1020.7476662509945
2023-04-26T13:56:26.344Z,1020.7559518785805
2023-04-26T14:08:49.050Z,1020.7399143085147
2023-04-26T14:15:10.371Z,1020.7687135477586
2023-04-26T14:21:31.030Z,1020.7940844201684
2023-04-26T14:29:34.123Z,1020.8275419713764
2023-04-26T14:35:55.039Z,1020.8553568066632
2023-04-26T14:42:15.998Z,1020.8468877142968
2023-04-26T14:48:37.331Z,1020.8645536763861
2023-04-26T14:54:58.157Z,1020.8528320329983
2023-04-26T15:01:19.681Z,1020.8793541768097
2023-04-26T15:07:41.218Z,1020.9138757763698
2023-04-26T15:14:02.748Z,1020.9436259539539
2023-04-26T15:23:12.803Z,1021.0123897606863
2023-04-26T15:33:16.472Z,1021.0293101557189
2023-04-26T15:39:37.245Z,1021.0282049506981
2023-04-26T15:46:00.367Z,1021.0215090125085
2023-04-26T15:52:21.310Z,1021.0489865081148
2023-04-26T15:58:42.499Z,1021.0815486253251
2023-04-26T16:05:03.371Z,1021.0728099591994
2023-04-26T16:13:18.980Z,1021.0795213155199
2023-04-26T16:22:22.108Z,1021.11428211213
2023-04-26T16:34:44.456Z,1021.0537536975606
2023-04-26T16:41:04.704Z,1021.0337779693015
2023-04-26T16:52:44.215Z,1020.9613658926188
2023-04-26T16:59:05.990Z,1020.9272504507741
2023-04-26T17:05:26.793Z,1020.9289496560959
2023-04-26T17:20:05.649Z,1020.9762985863825
2023-04-26T17:26:28.343Z,1020.9960734889703
2023-04-26T17:39:38.943Z,1021.0696514327802
2023-04-26T17:48:37.919Z,1021.0934775522271
2023-04-26T17:55:03.742Z,1021.1499255879535
2023-04-26T18:01:26.085Z,1021.1608020457074
2023-04-26T18:08:35.520Z,1021.1544979907288
2023-04-26T18:16:28.952Z,1021.1756583734292
2023-04-26T18:29:13.449Z,1021.2107319489664
2023-04-26T18:35:39.238Z,1021.2323651765503
2023-04-26T18:46:47.890Z,1021.3363725924572
2023-04-26T18:53:09.030Z,1021.3550362207264
2023-04-26T18:59:31.547Z,1021.3692659115618
2023-04-26T19:10:40.348Z,1021.4831883914334
2023-04-26T19:17:02.204Z,1021.5170538883791
2023-04-26T19:23:27.708Z,1021.5731940622717
2023-04-26T19:35:20.771Z,1021.6470806358159
2023-04-26T19:41:41.700Z,1021.6751266378153
2023-04-26T19:48:05.071Z,1021.6823926499824
2023-04-26T20:07:28.062Z,1021.7868527056961
2023-04-26T20:14:09.578Z,1021.7918026665875
2023-04-26T20:20:41.712Z,1021.836635624078
2023-04-26T20:30:58.872Z,1021.8959587379094
2023-04-26T20:37:23.616Z,1021.9172567132382
2023-04-26T20:43:46.706Z,1021.9509598235898
2023-04-26T20:52:01.052Z,1021.987206530306
2023-04-26T20:58:36.369Z,1022.0067812929901
2023-04-26T21:04:57.394Z,1022.0340461519303
2023-04-26T21:11:17.433Z,1022.0753546211644
2023-04-26T21:18:41.080Z,1022.0969210015585
2023-04-26T21:36:10.248Z,1022.119601781442
2023-04-26T21:43:39.564Z,1022.136727250893
2023-04-26T21:55:06.820Z,1022.1720635999028
2023-04-26T22:01:30.998Z,1022.1722692337339
2023-04-26T22:11:53.413Z,1022.2165020438675
2023-04-26T22:18:15.726Z,1022.2257144867176
2023-04-26T22:24:35.128Z,1022.2418571811895
2023-04-26T22:30:55.276Z,1022.2683316430666
2023-04-26T22:37:21.252Z,1022.3191553239936
2023-04-26T22:43:41.770Z,1022.37557015842
2023-04-26T22:50:01.348Z,1022.4271184514455
2023-04-26T22:56:22.372Z,1022.4097112852552
2023-04-26T23:02:43.532Z,1022.4448983325198
2023-04-26T23:09:18.823Z,1022.5151180675994
2023-04-26T23:15:38.295Z,1022.5723431526756
2023-04-26T23:21:58.022Z,1022.627456947579
2023-04-26T23:28:19.150Z,1022.7067798960477
2023-04-26T23:34:39.285Z,1022.7046869395515
2023-04-26T23:41:01.895Z,1022.7081092186784
2023-04-26T23:47:23.158Z,1022.7102805264108
2023-04-26T23:59:01.947Z,1022.7093867535273
